sensor_id;sensor_type;location;lat;lon;timestamp;pressure;altitude;pressure_sealevel;temperature;humidity
4398;BME280;2213;49.720;7.296;2023-04-27T00:01:38;98275.28;;;6.80;100.00
4398;BME280;2213;49.720;7.296;2023-04-27T00:04:09;98280.25;;;6.74;100.00
4398;BME280;2213;49.720;7.296;2023-04-27T00:06:38;98271.97;;;6.70;100.00
4398;BME280;2213;49.720;7.296;2023-04-27T00:09:08;98275.06;;;6.74;100.00
4398;BME280;2213;49.720;7.296;2023-04-27T00:11:41;98279.75;;;6.70;100.00
4398;BME280;2213;49.720;7.296;2023-04-27T00:14:10;98267.59;;;6.63;100.00
4398;BME280;2213;49.720;7.296;2023-04-27T00:16:41;98275.38;;;6.63;100.00
4398;BME280;2213;49.720;7.296;2023-04-27T00:19:11;98271.97;;;6.62;100.00
4398;BME280;2213;49.720;7.296;2023-04-27T00:21:42;98275.38;;;6.63;100.00
4398;BME280;2213;49.720;7.296;2023-04-27T00:24:11;98276.97;;;6.64;100.00
4398;BME280;2213;49.720;7.296;2023-04-27T00:26:43;98277.97;;;6.63;100.00
4398;BME280;2213;49.720;7.296;2023-04-27T00:29:12;98282.81;;;6.57;100.00
4398;BME280;2213;49.720;7.296;2023-04-27T00:31:42;98283.78;;;6.56;100.00
4398;BME280;2213;49.720;7.296;2023-04-27T00:34:12;98281.16;;;6.48;100.00
4398;BME280;2213;49.720;7.296;2023-04-27T00:36:42;98279.84;;;6.44;100.00
4398;BME280;2213;49.720;7.296;2023-04-27T00:39:12;98285.03;;;6.44;100.00
4398;BME280;2213;49.720;7.296;2023-04-27T00:41:44;98279.16;;;6.42;100.00
4398;BME280;2213;49.720;7.296;2023-04-27T00:44:21;98275.41;;;6.37;100.00
4398;BME280;2213;49.720;7.296;2023-04-27T00:46:50;98283.06;;;6.38;100.00
4398;BME280;2213;49.720;7.296;2023-04-27T00:49:19;98276.84;;;6.31;100.00
4398;BME280;2213;49.720;7.296;2023-04-27T00:51:49;98275.34;;;6.29;100.00
4398;BME280;2213;49.720;7.296;2023-04-27T00:54:20;98278.94;;;6.28;100.00
4398;BME280;2213;49.720;7.296;2023-04-27T00:56:51;98275.66;;;6.26;100.00
4398;BME280;2213;49.720;7.296;2023-04-27T00:59:20;98271.47;;;6.25;100.00
4398;BME280;2213;49.720;7.296;2023-04-27T01:01:50;98276.44;;;6.18;100.00
4398;BME280;2213;49.720;7.296;2023-04-27T01:04:21;98279.69;;;6.20;100.00
4398;BME280;2213;49.720;7.296;2023-04-27T01:06:51;98282.91;;;6.14;100.00
4398;BME280;2213;49.720;7.296;2023-04-27T01:09:21;98281.13;;;6.15;100.00
4398;BME280;2213;49.720;7.296;2023-04-27T01:11:52;98285.97;;;6.10;100.00
4398;BME280;2213;49.720;7.296;2023-04-27T01:14:21;98281.91;;;6.07;100.00
4398;BME280;2213;49.720;7.296;2023-04-27T01:16:50;98287.38;;;6.04;100.00
4398;BME280;2213;49.720;7.296;2023-04-27T01:19:21;98277.31;;;6.01;100.00
4398;BME280;2213;49.720;7.296;2023-04-27T01:21:51;98283.81;;;6.05;100.00
4398;BME280;2213;49.720;7.296;2023-04-27T01:24:21;98272.28;;;5.99;100.00
4398;BME280;2213;49.720;7.296;2023-04-27T01:26:50;98275.69;;;6.00;100.00
4398;BME280;2213;49.720;7.296;2023-04-27T01:29:21;98279.91;;;6.01;100.00
4398;BME280;2213;49.720;7.296;2023-04-27T01:31:51;98274.66;;;5.93;100.00
4398;BME280;2213;49.720;7.296;2023-04-27T01:34:21;98271.59;;;5.80;100.00
4398;BME280;2213;49.720;7.296;2023-04-27T01:36:52;98284.88;;;5.77;100.00
4398;BME280;2213;49.720;7.296;2023-04-27T01:39:22;98285.88;;;5.76;100.00
4398;BME280;2213;49.720;7.296;2023-04-27T01:41:52;98274.66;;;5.75;100.00
4398;BME280;2213;49.720;7.296;2023-04-27T01:44:24;98267.03;;;5.74;100.00
4398;BME280;2213;49.720;7.296;2023-04-27T01:46:55;98275.13;;;5.71;100.00
4398;BME280;2213;49.720;7.296;2023-04-27T01:49:24;98276.38;;;5.67;100.00
4398;BME280;2213;49.720;7.296;2023-04-27T01:51:54;98280.59;;;5.68;100.00
4398;BME280;2213;49.720;7.296;2023-04-27T01:54:26;98284.16;;;5.67;100.00
4398;BME280;2213;49.720;7.296;2023-04-27T01:56:56;98285.38;;;5.54;100.00
4398;BME280;2213;49.720;7.296;2023-04-27T01:59:25;98281.78;;;5.55;100.00
4398;BME280;2213;49.720;7.296;2023-04-27T02:01:56;98288.63;;;5.56;100.00
4398;BME280;2213;49.720;7.296;2023-04-27T02:04:25;98290.91;;;5.59;100.00
4398;BME280;2213;49.720;7.296;2023-04-27T02:06:55;98292.03;;;5.57;100.00
4398;BME280;2213;49.720;7.296;2023-04-27T02:09:27;98288.25;;;5.51;100.00
4398;BME280;2213;49.720;7.296;2023-04-27T02:11:57;98293.59;;;5.50;100.00
4398;BME280;2213;49.720;7.296;2023-04-27T02:14:27;98291.44;;;5.45;100.00
4398;BME280;2213;49.720;7.296;2023-04-27T02:16:57;98289.97;;;5.43;100.00
4398;BME280;2213;49.720;7.296;2023-04-27T02:19:28;98295.31;;;5.41;100.00
4398;BME280;2213;49.720;7.296;2023-04-27T02:21:57;98297.53;;;5.36;100.00
4398;BME280;2213;49.720;7.296;2023-04-27T02:24:30;98304.03;;;5.40;100.00
4398;BME280;2213;49.720;7.296;2023-04-27T02:27:00;98299.22;;;5.45;100.00
4398;BME280;2213;49.720;7.296;2023-04-27T02:29:31;98297.22;;;5.39;100.00
4398;BME280;2213;49.720;7.296;2023-04-27T02:32:01;98301.75;;;5.37;100.00
4398;BME280;2213;49.720;7.296;2023-04-27T02:34:31;98298.84;;;5.40;100.00
4398;BME280;2213;49.720;7.296;2023-04-27T02:37:02;98304.19;;;5.39;100.00
4398;BME280;2213;49.720;7.296;2023-04-27T02:39:34;98289.75;;;5.36;100.00
4398;BME280;2213;49.720;7.296;2023-04-27T02:42:04;98287.66;;;5.40;100.00
4398;BME280;2213;49.720;7.296;2023-04-27T02:44:34;98289.81;;;5.44;100.00
4398;BME280;2213;49.720;7.296;2023-04-27T02:47:05;98283.94;;;5.42;100.00
4398;BME280;2213;49.720;7.296;2023-04-27T02:49:34;98288.50;;;5.40;100.00
4398;BME280;2213;49.720;7.296;2023-04-27T02:52:05;98288.63;;;5.39;100.00
4398;BME280;2213;49.720;7.296;2023-04-27T02:54:36;98289.75;;;5.36;100.00
4398;BME280;2213;49.720;7.296;2023-04-27T02:57:07;98290.69;;;5.35;100.00
4398;BME280;2213;49.720;7.296;2023-04-27T02:59:37;98289.34;;;5.31;100.00
4398;BME280;2213;49.720;7.296;2023-04-27T03:02:06;98282.25;;;5.33;100.00
4398;BME280;2213;49.720;7.296;2023-04-27T03:04:37;98284.84;;;5.33;100.00
4398;BME280;2213;49.720;7.296;2023-04-27T03:07:08;98290.69;;;5.35;100.00
4398;BME280;2213;49.720;7.296;2023-04-27T03:09:39;98284.03;;;5.33;100.00
4398;BME280;2213;49.720;7.296;2023-04-27T03:12:10;98289.22;;;5.33;100.00
4398;BME280;2213;49.720;7.296;2023-04-27T03:14:40;98284.84;;;5.33;100.00
4398;BME280;2213;49.720;7.296;2023-04-27T03:17:10;98283.31;;;5.40;100.00
4398;BME280;2213;49.720;7.296;2023-04-27T03:19:39;98283.66;;;5.45;100.00
4398;BME280;2213;49.720;7.296;2023-04-27T03:22:10;98274.09;;;5.46;100.00
4398;BME280;2213;49.720;7.296;2023-04-27T03:24:41;98286.94;;;5.47;100.00
4398;BME280;2213;49.720;7.296;2023-04-27T03:27:11;98280.09;;;5.46;100.00
4398;BME280;2213;49.720;7.296;2023-04-27T03:29:41;98277.50;;;5.46;100.00
4398;BME280;2213;49.720;7.296;2023-04-27T03:32:10;98284.34;;;5.47;100.00
4398;BME280;2213;49.720;7.296;2023-04-27T03:34:40;98286.09;;;5.47;100.00
4398;BME280;2213;49.720;7.296;2023-04-27T03:37:09;98280.47;;;5.51;100.00
4398;BME280;2213;49.720;7.296;2023-04-27T03:39:40;98287.44;;;5.51;100.00
4398;BME280;2213;49.720;7.296;2023-04-27T03:42:12;98276.25;;;5.50;100.00
4398;BME280;2213;49.720;7.296;2023-04-27T03:44:41;98276.09;;;5.52;100.00
4398;BME280;2213;49.720;7.296;2023-04-27T03:47:11;98275.31;;;5.51;100.00
4398;BME280;2213;49.720;7.296;2023-04-27T03:49:41;98275.75;;;5.47;100.00
4398;BME280;2213;49.720;7.296;2023-04-27T03:52:10;98271.50;;;5.46;100.00
4398;BME280;2213;49.720;7.296;2023-04-27T03:54:42;98279.44;;;5.44;100.00
4398;BME280;2213;49.720;7.296;2023-04-27T03:57:12;98280.03;;;5.38;100.00
4398;BME280;2213;49.720;7.296;2023-04-27T03:59:43;98287.06;;;5.28;100.00
4398;BME280;2213;49.720;7.296;2023-04-27T04:02:13;98288.03;;;5.27;100.00
4398;BME280;2213;49.720;7.296;2023-04-27T04:04:42;98282.56;;;5.30;100.00
4398;BME280;2213;49.720;7.296;2023-04-27T04:07:13;98281.88;;;5.28;100.00
4398;BME280;2213;49.720;7.296;2023-04-27T04:09:44;98281.34;;;5.25;100.00
4398;BME280;2213;49.720;7.296;2023-04-27T04:12:13;98289.44;;;5.22;100.00
4398;BME280;2213;49.720;7.296;2023-04-27T04:14:43;98291.16;;;5.13;100.00
4398;BME280;2213;49.720;7.296;2023-04-27T04:17:15;98282.69;;;5.11;100.00
4398;BME280;2213;49.720;7.296;2023-04-27T04:19:46;98291.44;;;5.10;100.00
4398;BME280;2213;49.720;7.296;2023-04-27T04:22:16;98295.28;;;5.06;100.00
4398;BME280;2213;49.720;7.296;2023-04-27T04:24:47;98290.41;;;5.03;100.00
4398;BME280;2213;49.720;7.296;2023-04-27T04:27:16;98287.41;;;4.98;100.00
4398;BME280;2213;49.720;7.296;2023-04-27T04:29:45;98290.00;;;4.98;100.00
4398;BME280;2213;49.720;7.296;2023-04-27T04:32:16;98290.41;;;5.03;100.00
4398;BME280;2213;49.720;7.296;2023-04-27T04:34:48;98294.88;;;5.01;100.00
4398;BME280;2213;49.720;7.296;2023-04-27T04:37:19;98299.41;;;4.99;100.00
4398;BME280;2213;49.720;7.296;2023-04-27T04:39:51;98301.03;;;5.00;100.00
4398;BME280;2213;49.720;7.296;2023-04-27T04:42:21;98304.31;;;5.02;100.00
4398;BME280;2213;49.720;7.296;2023-04-27T04:44:51;98309.78;;;4.99;100.00
4398;BME280;2213;49.720;7.296;2023-04-27T04:47:22;98310.72;;;4.98;100.00
4398;BME280;2213;49.720;7.296;2023-04-27T04:49:52;98316.72;;;4.98;100.00
4398;BME280;2213;49.720;7.296;2023-04-27T04:52:21;98316.72;;;4.98;100.00
4398;BME280;2213;49.720;7.296;2023-04-27T04:54:52;98318.22;;;5.01;100.00
4398;BME280;2213;49.720;7.296;2023-04-27T04:57:21;98313.31;;;4.98;100.00
4398;BME280;2213;49.720;7.296;2023-04-27T04:59:52;98318.50;;;4.98;100.00
4398;BME280;2213;49.720;7.296;2023-04-27T05:02:22;98311.69;;;4.97;100.00
4398;BME280;2213;49.720;7.296;2023-04-27T05:04:52;98315.25;;;4.96;100.00
4398;BME280;2213;49.720;7.296;2023-04-27T05:07:23;98319.09;;;4.92;100.00
4398;BME280;2213;49.720;7.296;2023-04-27T05:09:55;98318.78;;;4.95;100.00
4398;BME280;2213;49.720;7.296;2023-04-27T05:12:25;98324.81;;;4.95;100.00
4398;BME280;2213;49.720;7.296;2023-04-27T05:14:55;98326.41;;;4.96;100.00
4398;BME280;2213;49.720;7.296;2023-04-27T05:17:27;98333.41;;;4.96;100.00
4398;BME280;2213;49.720;7.296;2023-04-27T05:19:57;98330.94;;;4.94;100.00
4398;BME280;2213;49.720;7.296;2023-04-27T05:22:28;98328.88;;;4.98;100.00
4398;BME280;2213;49.720;7.296;2023-04-27T05:24:59;98328.56;;;5.01;100.00
4398;BME280;2213;49.720;7.296;2023-04-27T05:27:30;98332.38;;;5.06;100.00
4398;BME280;2213;49.720;7.296;2023-04-27T05:29:59;98333.69;;;5.11;100.00
4398;BME280;2213;49.720;7.296;2023-04-27T05:32:29;98340.53;;;5.12;100.00
4398;BME280;2213;49.720;7.296;2023-04-27T05:35:02;98337.50;;;5.16;100.00
4398;BME280;2213;49.720;7.296;2023-04-27T05:37:32;98338.84;;;5.20;100.00
4398;BME280;2213;49.720;7.296;2023-04-27T05:40:07;98330.78;;;5.23;100.00
4398;BME280;2213;49.720;7.296;2023-04-27T05:42:37;98339.22;;;5.25;100.00
4398;BME280;2213;49.720;7.296;2023-04-27T05:45:10;98342.91;;;5.23;100.00
4398;BME280;2213;49.720;7.296;2023-04-27T05:47:41;98346.47;;;5.22;100.00
4398;BME280;2213;49.720;7.296;2023-04-27T05:50:10;98342.22;;;5.21;100.00
4398;BME280;2213;49.720;7.296;2023-04-27T05:52:40;98344.69;;;5.22;100.00
4398;BME280;2213;49.720;7.296;2023-04-27T05:55:11;98343.44;;;5.26;100.00
4398;BME280;2213;49.720;7.296;2023-04-27T05:57:40;98353.50;;;5.29;100.00
4398;BME280;2213;49.720;7.296;2023-04-27T06:00:13;98343.66;;;5.33;100.00
4398;BME280;2213;49.720;7.296;2023-04-27T06:02:46;98342.72;;;5.34;100.00
4398;BME280;2213;49.720;7.296;2023-04-27T06:05:16;98344.06;;;5.38;100.00
4398;BME280;2213;49.720;7.296;2023-04-27T06:07:48;98346.34;;;5.41;100.00
4398;BME280;2213;49.720;7.296;2023-04-27T06:10:20;98350.94;;;5.47;100.00
4398;BME280;2213;49.720;7.296;2023-04-27T06:12:50;98349.53;;;5.52;100.00
4398;BME280;2213;49.720;7.296;2023-04-27T06:15:20;98359.59;;;5.55;100.00
4398;BME280;2213;49.720;7.296;2023-04-27T06:17:49;98354.72;;;5.52;100.00
4398;BME280;2213;49.720;7.296;2023-04-27T06:20:19;98353.47;;;5.56;100.00
4398;BME280;2213;49.720;7.296;2023-04-27T06:22:51;98356.13;;;5.65;100.00
4398;BME280;2213;49.720;7.296;2023-04-27T06:25:22;98358.28;;;5.69;100.00
4398;BME280;2213;49.720;7.296;2023-04-27T06:27:54;98363.31;;;5.71;100.00
4398;BME280;2213;49.720;7.296;2023-04-27T06:30:26;98361.91;;;5.76;100.00
4398;BME280;2213;49.720;7.296;2023-04-27T06:32:57;98362.94;;;5.83;100.00
4398;BME280;2213;49.720;7.296;2023-04-27T06:35:27;98356.50;;;5.87;100.00
4398;BME280;2213;49.720;7.296;2023-04-27T06:37:57;98353.47;;;5.92;100.00
4398;BME280;2213;49.720;7.296;2023-04-27T06:40:30;98357.09;;;5.99;100.00
4398;BME280;2213;49.720;7.296;2023-04-27T06:43:01;98357.44;;;6.04;100.00
4398;BME280;2213;49.720;7.296;2023-04-27T06:45:32;98359.59;;;6.08;100.00
4398;BME280;2213;49.720;7.296;2023-04-27T06:48:02;98358.03;;;6.16;100.00
4398;BME280;2213;49.720;7.296;2023-04-27T06:50:35;98355.81;;;6.21;100.00
4398;BME280;2213;49.720;7.296;2023-04-27T06:53:04;98353.56;;;6.26;100.00
4398;BME280;2213;49.720;7.296;2023-04-27T06:55:36;98352.16;;;6.31;100.00
4398;BME280;2213;49.720;7.296;2023-04-27T06:58:11;98349.75;;;6.38;100.00
4398;BME280;2213;49.720;7.296;2023-04-27T07:00:42;98347.38;;;6.44;100.00
4398;BME280;2213;49.720;7.296;2023-04-27T07:03:13;98343.31;;;6.50;100.00
4398;BME280;2213;49.720;7.296;2023-04-27T07:05:45;98347.09;;;6.55;100.00
4398;BME280;2213;49.720;7.296;2023-04-27T07:08:15;98340.31;;;6.63;100.00
4398;BME280;2213;49.720;7.296;2023-04-27T07:10:46;98335.31;;;6.69;100.00
4398;BME280;2213;49.720;7.296;2023-04-27T07:13:17;98333.56;;;6.78;100.00
4398;BME280;2213;49.720;7.296;2023-04-27T07:15:52;98326.94;;;6.83;100.00
4398;BME280;2213;49.720;7.296;2023-04-27T07:18:23;98327.78;;;6.92;100.00
4398;BME280;2213;49.720;7.296;2023-04-27T07:20:55;98330.22;;;7.01;100.00
4398;BME280;2213;49.720;7.296;2023-04-27T07:23:25;98328.50;;;7.10;100.00
4398;BME280;2213;49.720;7.296;2023-04-27T07:25:58;98323.47;;;7.17;100.00
4398;BME280;2213;49.720;7.296;2023-04-27T07:28:27;98331.44;;;7.23;100.00
4398;BME280;2213;49.720;7.296;2023-04-27T07:30:57;98324.50;;;7.32;100.00
4398;BME280;2213;49.720;7.296;2023-04-27T07:33:27;98332.16;;;7.41;100.00
4398;BME280;2213;49.720;7.296;2023-04-27T07:35:58;98336.69;;;7.47;100.00
4398;BME280;2213;49.720;7.296;2023-04-27T07:38:28;98330.56;;;7.56;100.00
4398;BME280;2213;49.720;7.296;2023-04-27T07:41:00;98328.59;;;7.67;100.00
4398;BME280;2213;49.720;7.296;2023-04-27T07:43:32;98337.88;;;7.77;100.00
4398;BME280;2213;49.720;7.296;2023-04-27T07:46:01;98338.06;;;7.84;100.00
4398;BME280;2213;49.720;7.296;2023-04-27T07:48:30;98336.56;;;7.89;100.00
4398;BME280;2213;49.720;7.296;2023-04-27T07:50:59;98335.09;;;7.95;100.00
4398;BME280;2213;49.720;7.296;2023-04-27T07:53:30;98330.88;;;8.02;100.00
4398;BME280;2213;49.720;7.296;2023-04-27T07:56:05;98337.03;;;8.09;100.00
4398;BME280;2213;49.720;7.296;2023-04-27T07:58:35;98332.47;;;8.19;98.76
4398;BME280;2213;49.720;7.296;2023-04-27T08:01:05;98335.25;;;8.26;98.48
4398;BME280;2213;49.720;7.296;2023-04-27T08:03:35;98337.06;;;8.33;97.77
4398;BME280;2213;49.720;7.296;2023-04-27T08:06:06;98337.38;;;8.38;96.67
4398;BME280;2213;49.720;7.296;2023-04-27T08:08:37;98325.47;;;8.44;96.08
4398;BME280;2213;49.720;7.296;2023-04-27T08:11:10;98324.00;;;8.49;96.43
4398;BME280;2213;49.720;7.296;2023-04-27T08:13:40;98328.53;;;8.55;96.62
4398;BME280;2213;49.720;7.296;2023-04-27T08:16:11;98325.09;;;8.63;97.16
4398;BME280;2213;49.720;7.296;2023-04-27T08:18:43;98323.44;;;8.70;96.04
4398;BME280;2213;49.720;7.296;2023-04-27T08:21:13;98328.16;;;8.75;95.45
4398;BME280;2213;49.720;7.296;2023-04-27T08:23:42;98323.88;;;8.82;95.13
4398;BME280;2213;49.720;7.296;2023-04-27T08:26:15;98327.63;;;8.87;96.12
4398;BME280;2213;49.720;7.296;2023-04-27T08:28:44;98312.13;;;8.94;94.53
4398;BME280;2213;49.720;7.296;2023-04-27T08:31:14;98311.44;;;9.00;93.94
4398;BME280;2213;49.720;7.296;2023-04-27T08:33:44;98305.19;;;9.09;93.92
4398;BME280;2213;49.720;7.296;2023-04-27T08:36:14;98304.31;;;9.17;93.58
4398;BME280;2213;49.720;7.296;2023-04-27T08:38:44;98304.78;;;9.20;93.02
4398;BME280;2213;49.720;7.296;2023-04-27T08:41:19;98303.78;;;9.29;93.15
4398;BME280;2213;49.720;7.296;2023-04-27T08:43:51;98305.34;;;9.38;92.77
4398;BME280;2213;49.720;7.296;2023-04-27T08:46:22;98299.41;;;9.44;93.06
4398;BME280;2213;49.720;7.296;2023-04-27T08:48:53;98303.16;;;9.50;92.50
4398;BME280;2213;49.720;7.296;2023-04-27T08:51:23;98306.03;;;9.55;90.97
4398;BME280;2213;49.720;7.296;2023-04-27T08:53:56;98302.28;;;9.57;89.88
4398;BME280;2213;49.720;7.296;2023-04-27T08:56:29;98295.38;;;9.65;90.66
4398;BME280;2213;49.720;7.296;2023-04-27T08:59:00;98296.63;;;9.69;89.88
4398;BME280;2213;49.720;7.296;2023-04-27T09:01:33;98297.91;;;9.73;88.92
4398;BME280;2213;49.720;7.296;2023-04-27T09:04:03;98298.03;;;9.79;88.91
4398;BME280;2213;49.720;7.296;2023-04-27T09:06:34;98298.59;;;9.89;89.07
4398;BME280;2213;49.720;7.296;2023-04-27T09:09:05;98296.44;;;9.93;87.49
4398;BME280;2213;49.720;7.296;2023-04-27T09:11:38;98298.38;;;9.99;86.28
4398;BME280;2213;49.720;7.296;2023-04-27T09:14:18;98296.03;;;10.04;86.78
4398;BME280;2213;49.720;7.296;2023-04-27T09:16:53;98285.50;;;10.12;86.82
4398;BME280;2213;49.720;7.296;2023-04-27T09:19:28;98287.44;;;10.18;86.87
4398;BME280;2213;49.720;7.296;2023-04-27T09:22:07;98281.16;;;10.27;87.41
4398;BME280;2213;49.720;7.296;2023-04-27T09:24:37;98280.41;;;10.33;87.83
4398;BME280;2213;49.720;7.296;2023-04-27T09:27:08;98283.94;;;10.40;87.16
4398;BME280;2213;49.720;7.296;2023-04-27T09:29:38;98280.59;;;10.46;84.62
4398;BME280;2213;49.720;7.296;2023-04-27T09:32:14;98277.09;;;10.54;84.83
4398;BME280;2213;49.720;7.296;2023-04-27T09:34:45;98273.56;;;10.62;85.57
4398;BME280;2213;49.720;7.296;2023-04-27T09:37:15;98268.88;;;10.72;86.56
4398;BME280;2213;49.720;7.296;2023-04-27T09:39:46;98275.06;;;10.85;85.79
4398;BME280;2213;49.720;7.296;2023-04-27T09:42:17;98271.56;;;10.93;84.81
4398;BME280;2213;49.720;7.296;2023-04-27T09:44:46;98272.88;;;11.03;83.52
4398;BME280;2213;49.720;7.296;2023-04-27T09:47:16;98269.16;;;11.13;84.67
4398;BME280;2213;49.720;7.296;2023-04-27T09:49:47;98268.22;;;11.20;84.82
4398;BME280;2213;49.720;7.296;2023-04-27T09:52:17;98264.88;;;11.26;84.17
4398;BME280;2213;49.720;7.296;2023-04-27T09:54:48;98260.69;;;11.32;83.04
4398;BME280;2213;49.720;7.296;2023-04-27T09:57:33;98262.19;;;11.41;82.95
4398;BME280;2213;49.720;7.296;2023-04-27T10:00:19;98255.00;;;11.49;82.01
4398;BME280;2213;49.720;7.296;2023-04-27T10:03:09;98256.91;;;11.55;79.92
4398;BME280;2213;49.720;7.296;2023-04-27T10:06:30;98258.38;;;11.65;80.06
4398;BME280;2213;49.720;7.296;2023-04-27T10:09:04;98259.81;;;11.67;78.57
4398;BME280;2213;49.720;7.296;2023-04-27T10:11:38;98259.28;;;11.72;76.70
4398;BME280;2213;49.720;7.296;2023-04-27T10:14:16;98261.53;;;11.75;75.63
4398;BME280;2213;49.720;7.296;2023-04-27T10:16:50;98257.53;;;11.79;75.03
4398;BME280;2213;49.720;7.296;2023-04-27T10:19:21;98264.84;;;11.83;74.55
4398;BME280;2213;49.720;7.296;2023-04-27T10:21:53;98263.69;;;11.92;74.85
4398;BME280;2213;49.720;7.296;2023-04-27T10:24:37;98265.75;;;11.97;73.58
4398;BME280;2213;49.720;7.296;2023-04-27T10:27:08;98264.97;;;12.03;73.35
4398;BME280;2213;49.720;7.296;2023-04-27T10:29:41;98255.78;;;12.14;73.48
4398;BME280;2213;49.720;7.296;2023-04-27T10:32:18;98260.06;;;12.21;75.21
4398;BME280;2213;49.720;7.296;2023-04-27T10:34:48;98257.88;;;12.25;74.01
4398;BME280;2213;49.720;7.296;2023-04-27T10:37:18;98256.72;;;12.34;74.36
4398;BME280;2213;49.720;7.296;2023-04-27T10:39:52;98254.75;;;12.42;73.50
4398;BME280;2213;49.720;7.296;2023-04-27T10:42:35;98247.09;;;12.47;73.28
4398;BME280;2213;49.720;7.296;2023-04-27T10:45:10;98245.31;;;12.54;73.88
4398;BME280;2213;49.720;7.296;2023-04-27T10:47:43;98240.91;;;12.61;73.46
4398;BME280;2213;49.720;7.296;2023-04-27T10:50:15;98234.31;;;12.72;73.38
4398;BME280;2213;49.720;7.296;2023-04-27T10:52:45;98234.94;;;12.81;73.73
4398;BME280;2213;49.720;7.296;2023-04-27T10:55:19;98231.75;;;12.92;73.87
4398;BME280;2213;49.720;7.296;2023-04-27T10:57:50;98218.69;;;13.05;74.05
4398;BME280;2213;49.720;7.296;2023-04-27T11:00:26;98226.38;;;13.13;73.06
4398;BME280;2213;49.720;7.296;2023-04-27T11:03:10;98219.72;;;13.17;72.14
4398;BME280;2213;49.720;7.296;2023-04-27T11:05:43;98219.75;;;13.24;69.56
4398;BME280;2213;49.720;7.296;2023-04-27T11:08:16;98209.88;;;13.26;69.18
4398;BME280;2213;49.720;7.296;2023-04-27T11:10:48;98207.03;;;13.27;69.43
4398;BME280;2213;49.720;7.296;2023-04-27T11:13:19;98209.88;;;13.32;69.58
4398;BME280;2213;49.720;7.296;2023-04-27T11:15:53;98207.44;;;13.37;69.67
4398;BME280;2213;49.720;7.296;2023-04-27T11:18:26;98207.44;;;13.44;70.74
4398;BME280;2213;49.720;7.296;2023-04-27T11:21:09;98203.63;;;13.46;70.18
4398;BME280;2213;49.720;7.296;2023-04-27T11:23:39;98203.81;;;13.51;70.22
4398;BME280;2213;49.720;7.296;2023-04-27T11:26:10;98208.25;;;13.57;69.89
4398;BME280;2213;49.720;7.296;2023-04-27T11:28:43;98206.44;;;13.65;67.93
4398;BME280;2213;49.720;7.296;2023-04-27T11:31:14;98203.44;;;13.74;68.69
4398;BME280;2213;49.720;7.296;2023-04-27T11:33:48;98201.38;;;13.83;68.47
4398;BME280;2213;49.720;7.296;2023-04-27T11:36:18;98202.19;;;13.83;66.79
4398;BME280;2213;49.720;7.296;2023-04-27T11:38:47;98203.81;;;13.91;66.41
4398;BME280;2213;49.720;7.296;2023-04-27T11:41:17;98200.97;;;13.92;65.39
4398;BME280;2213;49.720;7.296;2023-04-27T11:43:48;98194.09;;;13.98;66.47
4398;BME280;2213;49.720;7.296;2023-04-27T11:46:21;98197.72;;;14.03;67.16
4398;BME280;2213;49.720;7.296;2023-04-27T11:48:50;98189.81;;;14.10;67.12
4398;BME280;2213;49.720;7.296;2023-04-27T11:51:23;98188.81;;;14.11;66.00
4398;BME280;2213;49.720;7.296;2023-04-27T11:53:52;98183.53;;;14.11;65.45
4398;BME280;2213;49.720;7.296;2023-04-27T11:56:22;98185.16;;;14.12;64.86
4398;BME280;2213;49.720;7.296;2023-04-27T11:58:51;98176.66;;;14.10;63.44
4398;BME280;2213;49.720;7.296;2023-04-27T12:01:23;98169.75;;;14.29;65.83
4398;BME280;2213;49.720;7.296;2023-04-27T12:04:04;98175.41;;;14.39;66.39
4398;BME280;2213;49.720;7.296;2023-04-27T12:06:34;98180.22;;;14.48;66.64
4398;BME280;2213;49.720;7.296;2023-04-27T12:09:04;98185.88;;;14.52;65.60
4398;BME280;2213;49.720;7.296;2023-04-27T12:11:34;98179.19;;;14.56;65.49
4398;BME280;2213;49.720;7.296;2023-04-27T12:14:04;98168.03;;;14.60;65.26
4398;BME280;2213;49.720;7.296;2023-04-27T12:16:37;98174.50;;;14.65;65.26
4398;BME280;2213;49.720;7.296;2023-04-27T12:19:07;98165.53;;;14.72;65.22
4398;BME280;2213;49.720;7.296;2023-04-27T12:21:35;98160.47;;;14.77;64.47
4398;BME280;2213;49.720;7.296;2023-04-27T12:24:06;98159.38;;;14.91;66.21
4398;BME280;2213;49.720;7.296;2023-04-27T12:26:36;98161.72;;;15.06;65.02
4398;BME280;2213;49.720;7.296;2023-04-27T12:29:06;98158.44;;;15.10;63.59
4398;BME280;2213;49.720;7.296;2023-04-27T12:31:37;98157.59;;;15.10;61.98
4398;BME280;2213;49.720;7.296;2023-04-27T12:34:07;98148.28;;;15.14;63.09
4398;BME280;2213;49.720;7.296;2023-04-27T12:36:36;98155.75;;;15.17;63.15
4398;BME280;2213;49.720;7.296;2023-04-27T12:39:14;98157.16;;;15.20;61.56
4398;BME280;2213;49.720;7.296;2023-04-27T12:41:44;98150.28;;;15.19;60.85
4398;BME280;2213;49.720;7.296;2023-04-27T12:44:15;98154.16;;;15.16;60.52
4398;BME280;2213;49.720;7.296;2023-04-27T12:46:47;98148.66;;;15.18;60.83
4398;BME280;2213;49.720;7.296;2023-04-27T12:49:16;98144.63;;;15.15;60.87
4398;BME280;2213;49.720;7.296;2023-04-27T12:51:46;98147.59;;;15.25;61.97
4398;BME280;2213;49.720;7.296;2023-04-27T12:54:18;98152.81;;;15.32;61.75
4398;BME280;2213;49.720;7.296;2023-04-27T12:56:47;98147.72;;;15.37;62.70
4398;BME280;2213;49.720;7.296;2023-04-27T12:59:18;98149.28;;;15.44;63.23
4398;BME280;2213;49.720;7.296;2023-04-27T13:01:48;98150.47;;;15.48;61.68
4398;BME280;2213;49.720;7.296;2023-04-27T13:04:19;98161.00;;;15.48;61.76
4398;BME280;2213;49.720;7.296;2023-04-27T13:06:49;98151.06;;;15.50;60.43
4398;BME280;2213;49.720;7.296;2023-04-27T13:09:19;98152.25;;;15.54;60.89
4398;BME280;2213;49.720;7.296;2023-04-27T13:11:50;98151.81;;;15.57;61.59
4398;BME280;2213;49.720;7.296;2023-04-27T13:14:20;98150.78;;;15.58;61.15
4398;BME280;2213;49.720;7.296;2023-04-27T13:16:50;98145.75;;;15.57;60.20
4398;BME280;2213;49.720;7.296;2023-04-27T13:19:20;98147.75;;;15.62;60.20
4398;BME280;2213;49.720;7.296;2023-04-27T13:21:52;98143.84;;;15.64;60.71
4398;BME280;2213;49.720;7.296;2023-04-27T13:24:23;98144.44;;;15.66;60.76
4398;BME280;2213;49.720;7.296;2023-04-27T13:26:53;98146.44;;;15.71;61.33
4398;BME280;2213;49.720;7.296;2023-04-27T13:29:22;98153.09;;;15.73;60.87
4398;BME280;2213;49.720;7.296;2023-04-27T13:31:54;98153.31;;;15.72;60.21
4398;BME280;2213;49.720;7.296;2023-04-27T13:34:23;98152.34;;;15.66;59.63
4398;BME280;2213;49.720;7.296;2023-04-27T13:36:52;98148.31;;;15.64;59.51
4398;BME280;2213;49.720;7.296;2023-04-27T13:39:22;98153.59;;;15.64;59.12
4398;BME280;2213;49.720;7.296;2023-04-27T13:41:54;98149.63;;;15.54;58.99
4398;BME280;2213;49.720;7.296;2023-04-27T13:44:24;98153.84;;;15.55;59.41